Marsing, ID (83639)

1:03 PM MDT on September 01, 2014 (GMT -0600)
Rural hilltop | Change Station
CLOSE
Current Station
Personal Weather Station
Location: Wilder, ID
Elevation: 2650 ft
Nearby Weather Stations

Elev 2650 ft 43.62 °N, 116.84 °W | Updated 1 second ago

Clear
Clear
71.5 °F
Feels Like 77 °F
N
1.2
Wind Variable Wind from NNW
Gusts 4.0 mph

Today
High -- | Low -- °F
--% Chance of Precip.
Yesterday
High -- | Low -- °F
Precip. -- in
7:11 AM 8:22 PM
Waxing Crescent, 43% visible
Pressure 30.11 in
Visibility 10.0 miles
Clouds Clear
Heat Index 77 °F
Dew Point 46 °F
Humidity 40%
Rainfall 0.00 in
Snow Depth Not available.
UV 8 out of 12
Pollen 7.30 out of 12
PM2.5 Good
Flu Activity Not available.
METAR KEUL 011855Z AUTO 30004KT 10SM CLR 20/04 A3011 RMK AO1

More Conditions Fewer Conditions

Pressure 30.11 in
Visibility 10.0 miles
Clouds Clear
Heat Index 77 °F
Dew Point 46 °F
Humidity 40%
Rainfall 0.00 in
Snow Depth Not available.
UV 8 out of 12
Pollen 7.30 out of 12
PM2.5 Good
Flu Activity Not available.
METAR KEUL 011855Z AUTO 30004KT 10SM CLR 20/04 A3011 RMK AO1

More Conditions Fewer Conditions

10-Day Weather Forecast

Almanac

Astronomy

Sep. 01, 2014 Rise Set
Actual Time 7:11 AM MDT 8:22 PM MDT
Civil Twilight 6:41 AM MDT 8:51 PM MDT
Nautical Twilight 6:06 AM MDT 9:26 PM MDT
Astronomical Twilight 5:28 AM MDT 10:03 PM MDT
Moon 2:13 PM MDT No Moon Set
Length of Visible Light 14h 10m
Length of Day
13h 11m
Tomorrow will be 2m 52s shorter.
Waxing Crescent, 43% of the Moon is Illuminated
Today
Waxing Crescent
Sep 2
First Quarter
Sep 8
Full
Sep 15
Last Quarter
Sep 24
New

Today's Extremes

State Highs State Lows

Community

WunderPhotos

Upload Photos

1,749,367 photos uploaded!

WunderBlogs® & News

Nearby

Air Quality

  Air Quality AQ Index Pollutant
Yesterday Good
OZONE
Yesterday Good
PM10
Current Good
PM2.5
Monday Good
OZONE
Tuesday Good
OZONE
Wednesday Good
OZONE

Snow Depth

Station Depth Elevation
Bogus Basin 0 in 6340 ft
South Mountain 0 in 6500 ft
Van Wyck 0 in 4920 ft
Mud Flat 0 in 5730 ft
Camas Creek Divide 0 in 5710 ft

Earthquake Activity

City Distance Mag. Time & Date
No recent earthquake activity has been reported nearby.
Minimum magnitude displayed is 2.5.

Coastal Water Temperatures

Place Temperature
No Stations Reporting

Nearby Weather Stations